Address 0x457e4858553c5a72398b08eef686cb55441bdd00

Overview

Balance:
0.374265769660096599 AVAX

AVAX Value:
$12.52 (@ $33.44/AVAX)

Token:
Txn Hash Method
Block
From
To
Value [Txn Fee]
0x9194d692edd12cf86ca0bdf77f4e2326a364b15aa89d23fee761df930faee1b1Start Game147404582022-05-15 19:41:241 day 11 hrs ago0x457e4858553c5a72398b08eef686cb55441bdd00OUT0x9ab9e81be39b73de3ccd9408862b1fc6d2144d2b0 AVAX0.0005304 25
0xa833e79f2753afea7d75838c8023b588cd041275c3fafe11ccde0ad7003ed2dc0xe9b31e20147368662022-05-15 17:40:501 day 13 hrs ago0x457e4858553c5a72398b08eef686cb55441bdd00OUT 0x27f6df9e8081bc5ab35b2855dbe88870a224c8aa0 AVAX0.089571166 26.5
0x5049f49433d72ae2d011265b51a894bd60d70b6bcdc2c3ba1c1ed3e7bc6c8b44Set Approval For...147368582022-05-15 17:40:321 day 13 hrs ago0x457e4858553c5a72398b08eef686cb55441bdd00OUT Crabada: Crabada NFT0 AVAX0.0014255675 26.5
0x4bfb469345f490d7333710951264d14e7799b0f78224713c5028d66e3724191eWithdraw147368142022-05-15 17:39:041 day 13 hrs ago0x457e4858553c5a72398b08eef686cb55441bdd00OUT Crabada: Game0 AVAX0.01081355 27.5
0x9fb20db5a8ddb9e26bfddd65efea4eddf1cb1f0c6e57dfa6c8b5895e39dabb59Remove Crabada F...147366892022-05-15 17:34:531 day 13 hrs ago0x457e4858553c5a72398b08eef686cb55441bdd00OUT Crabada: Game0 AVAX0.0032033925 27.5
0xa64df02ef38777b47b39bd2d520bfebeb1344e5e2d887d0dd4f6224837183ad3Remove Crabada F...147366772022-05-15 17:34:281 day 13 hrs ago0x457e4858553c5a72398b08eef686cb55441bdd00OUT Crabada: Game0 AVAX0.003209085 27.5
0x8af0579d40e3e88ed23f45b0bbe2dcdde5f06bf160a306c75a66ca66a4796e47Remove Crabada F...147366662022-05-15 17:34:071 day 13 hrs ago0x457e4858553c5a72398b08eef686cb55441bdd00OUT Crabada: Game0 AVAX0.003208755 27.5
0x0a7fe092c27f58c3dd8ccc8713b8f409232fbed3b69d5e40bc9d634cf906f108Remove Crabada F...147366432022-05-15 17:33:211 day 13 hrs ago0x457e4858553c5a72398b08eef686cb55441bdd00OUT Crabada: Game0 AVAX0.0032033925 27.5
0x13004b7fe53f998d75feba4696634f4fb19585e5b6257d6c1b7a3988f0962ec4Remove Crabada F...147366342022-05-15 17:33:031 day 13 hrs ago0x457e4858553c5a72398b08eef686cb55441bdd00OUT Crabada: Game0 AVAX0.003209085 27.5
0x48ca7c74c36bbb3b86494fc1c77a60b80fb69e181be96adce89bd616b6486897Remove Crabada F...147366182022-05-15 17:32:311 day 13 hrs ago0x457e4858553c5a72398b08eef686cb55441bdd00OUT Crabada: Game0 AVAX0.003208755 27.5
0x4e778f27dc89d8e74a5f0333d8683f03eac68a276e03b752ab726057cdbb139cRemove Crabada F...147365892022-05-15 17:31:321 day 13 hrs ago0x457e4858553c5a72398b08eef686cb55441bdd00OUT Crabada: Game0 AVAX0.0032033925 27.5
0x86f301f43b8bb07d0393c269fddf31c7277eb318900ed9349a49e260d2fb69faRemove Crabada F...147365662022-05-15 17:30:451 day 13 hrs ago0x457e4858553c5a72398b08eef686cb55441bdd00OUT Crabada: Game0 AVAX0.003209085 27.5
0x3bc64c4c316c2520ae80fb2125d1ebecea80b442a69a7198415361ff2de3d323Remove Crabada F...147365412022-05-15 17:29:551 day 13 hrs ago0x457e4858553c5a72398b08eef686cb55441bdd00OUT Crabada: Game0 AVAX0.003208755 27.5
0x81f33adbd9e5584c1680b8e18029b268c9bd47f5fc2c7ea8f0f152fad99a3da3Settle Game147054862022-05-15 0:13:402 days 7 hrs ago0x457e4858553c5a72398b08eef686cb55441bdd00OUT Crabada: Game0 AVAX0.00681577 26
0xe45d571931605bf828b9331b971f4e7484c2d231e4dd99f1fa544b6f85d605b5Settle Game147054712022-05-15 0:13:092 days 7 hrs ago0x457e4858553c5a72398b08eef686cb55441bdd00OUT Crabada: Game0 AVAX0.006555744 26
0xbea3b2750ef5a9ca12e83a5a2aa86ee9c21ce5057c854c51beb6f07ac3ddaa74Settle Game147054562022-05-15 0:12:392 days 7 hrs ago0x457e4858553c5a72398b08eef686cb55441bdd00OUT Crabada: Game0 AVAX0.00655642 26
0xab1427dbe09d6eb767533446c6b58881ccfea155fe4ef0e8f5eba91add808f1fReinforce Attack147045092022-05-14 23:41:062 days 7 hrs ago0x457e4858553c5a72398b08eef686cb55441bdd00OUT Crabada: Game0 AVAX0.004163978 26
0x00d6df3e48db083a1afc43b8aa369d119d80d6390c3e06dac8f021b87ccf1a53Reinforce Attack147044822022-05-14 23:40:122 days 7 hrs ago0x457e4858553c5a72398b08eef686cb55441bdd00OUT Crabada: Game0 AVAX0.004163978 26
0x03f8177747f264f7d55f28e26fd837793022071842c633b1f4551d052d5952f5Reinforce Attack147044432022-05-14 23:38:542 days 7 hrs ago0x457e4858553c5a72398b08eef686cb55441bdd00OUT Crabada: Game0 AVAX0.005425992 26
0x6a261572980f16faa431c2f300b52a29173dcbb0c86dd9e6397c02222ed8c3c2Reinforce Attack147036572022-05-14 23:12:512 days 8 hrs ago0x457e4858553c5a72398b08eef686cb55441bdd00OUT Crabada: Game0 AVAX0.004160624 26
0x0b08df24c5ed15e0d1804f058497c8c1593e851cdd7e57a9ed6b516d9c05fe83Reinforce Attack147035722022-05-14 23:10:012 days 8 hrs ago0x457e4858553c5a72398b08eef686cb55441bdd00OUT Crabada: Game0 AVAX0.004160624 26
0x2d2ce90c5fa82b185d69ecab6e879153251604f6cef3d9d03cb170bd4e8427b1Reinforce Attack147035502022-05-14 23:09:192 days 8 hrs ago0x457e4858553c5a72398b08eef686cb55441bdd00OUT Crabada: Game0 AVAX0.004160624 26
0xf333bf209bec6a6d379b5cbb038a4e10b76660bf1370db6d7a528bdaf7c76b2eAttack147035322022-05-14 23:08:422 days 8 hrs ago0x457e4858553c5a72398b08eef686cb55441bdd00OUT Crabada: Game0 AVAX0.00530036 26
0x3603b253d7c562f817b5e256a1c98abd93ddcc6b2419d82ebf59034c5a7d57aeAttack147034962022-05-14 23:07:312 days 8 hrs ago0x457e4858553c5a72398b08eef686cb55441bdd00OUT Crabada: Game0 AVAX0.00530036 26
0x4273720029db446f82a1183a4a23fe60d3c4445ff2f674435bf26b725fb2c9e9Settle Game147034672022-05-14 23:06:332 days 8 hrs ago0x457e4858553c5a72398b08eef686cb55441bdd00OUT Crabada: Game0 AVAX0.006571292 26
[ Download CSV Export 
Latest 9 internal transactions
Parent Txn Hash Block From To Value
0xf0f2009245e978fe0a1e8ca9e7fd570dd479d416c135dfc487419781a894c800127988042022-03-31 4:10:1847 days 3 hrs ago Trader Joe: Router0x457e4858553c5a72398b08eef686cb55441bdd0010 AVAX
0x66d843d03d16ce0ebf99582f15606e9b41de2aade4b9ec8a6b4452387e15e3fb124418152022-03-22 18:22:3255 days 13 hrs ago Trader Joe: Router0x457e4858553c5a72398b08eef686cb55441bdd0010 AVAX
0x2867eaa35ecd31043306a9a8acab5bb4548cec5c55aa32e67346a3bd015ecae3123364092022-03-20 6:03:5858 days 1 hr ago Trader Joe: Router0x457e4858553c5a72398b08eef686cb55441bdd004 AVAX
0x7d9d4c150b0151689c4e42205d4d091aa80ca502b2718e051cf57cbc98541fcd122334362022-03-17 18:39:1460 days 12 hrs ago Trader Joe: Router0x457e4858553c5a72398b08eef686cb55441bdd004 AVAX
0x2edaf7d8cfa28336a58f4ab381ffe7da7e3a77833db886b2bca37b243dfa0caa121264142022-03-15 4:15:2263 days 3 hrs ago Trader Joe: Router0x457e4858553c5a72398b08eef686cb55441bdd004 AVAX
0x5bbaaf231ba12bb8b26ed8b2d4b029c9d55f08a0a0ceebb0f9dc2db624c8f89d121165992022-03-14 22:38:3563 days 8 hrs ago Trader Joe: Router0x457e4858553c5a72398b08eef686cb55441bdd004 AVAX
0x74184aade1da09497a8f7464b1b0b92e49165e3490a5fc6d9c3d8d67134af7ba116584542022-03-04 3:38:3974 days 3 hrs ago Trader Joe: Router0x457e4858553c5a72398b08eef686cb55441bdd008 AVAX
0x79a82b52b1b18b797020d9428b4e33cb44f578eb469f587c465c900442aeae1d114351682022-02-26 21:37:2679 days 9 hrs ago Trader Joe: Router0x457e4858553c5a72398b08eef686cb55441bdd002 AVAX
0x20be45a4dd11abec5c46d88c0f41e8da1b1e3232b59e122941d7ae9bac48cec4111356212022-02-19 19:51:1086 days 11 hrs ago Trader Joe: Router0x457e4858553c5a72398b08eef686cb55441bdd001 AVAX
[ Download CSV Export 
Loading

Contract Name:
0

Compiler Version
0

Optimization Enabled:
0

Other Settings:
-NA-
Block Transaction Gas Used Reward
Age Block Fee Address BC Fee Address Voting Power Jailed Incoming
Block Uncle Number Difficulty Gas Used Reward
Loading
Make sure to use the "Vote Down" button for any spammy posts, and the "Vote Up" for interesting conversations.